createdAt,value
2022-08-31T00:01:40.445Z,10.50
2022-08-31T00:04:13.541Z,10.50
2022-08-31T00:06:44.083Z,10.40
2022-08-31T00:09:15.997Z,10.40
2022-08-31T00:11:46.648Z,10.30
2022-08-31T00:14:14.919Z,10.40
2022-08-31T00:16:46.986Z,10.30
2022-08-31T00:19:20.662Z,10.30
2022-08-31T00:21:48.220Z,10.30
2022-08-31T00:24:20.006Z,10.20
2022-08-31T00:26:51.600Z,10.20
2022-08-31T00:29:18.968Z,10.20
2022-08-31T00:31:46.239Z,10.20
2022-08-31T00:34:13.834Z,10.20
2022-08-31T00:36:47.558Z,10.20
2022-08-31T00:39:15.683Z,10.20
2022-08-31T00:41:43.871Z,10.10
2022-08-31T00:44:11.775Z,10.10
2022-08-31T00:46:44.443Z,10.10
2022-08-31T00:49:15.393Z,10.10
2022-08-31T00:52:02.856Z,10.10
2022-08-31T00:54:53.865Z,10.10
2022-08-31T00:57:24.649Z,10.10
2022-08-31T01:00:05.213Z,10.00
2022-08-31T01:02:32.854Z,10.00
2022-08-31T01:05:01.116Z,10.00
2022-08-31T01:07:28.493Z,10.00
2022-08-31T01:10:00.672Z,10.00
2022-08-31T01:12:29.183Z,10.00
2022-08-31T01:14:58.090Z,10.00
2022-08-31T01:17:25.872Z,10.00
2022-08-31T01:20:32.573Z,10.00
2022-08-31T01:23:32.379Z,10.00
2022-08-31T01:26:01.418Z,10.00
2022-08-31T01:28:28.829Z,10.10
2022-08-31T01:31:11.491Z,10.10
2022-08-31T01:33:39.808Z,10.10
2022-08-31T01:36:11.005Z,10.20
2022-08-31T01:38:40.547Z,10.30
2022-08-31T01:41:08.172Z,10.30
2022-08-31T01:43:36.278Z,10.40
2022-08-31T01:46:09.520Z,10.50
2022-08-31T01:48:41.296Z,10.50
2022-08-31T01:51:12.406Z,10.60
2022-08-31T01:53:42.130Z,10.70
2022-08-31T01:56:26.295Z,10.70
2022-08-31T01:58:54.011Z,10.80
2022-08-31T02:01:33.918Z,10.80
2022-08-31T02:04:06.480Z,10.80
2022-08-31T02:06:34.986Z,10.90
2022-08-31T02:09:05.182Z,10.90
2022-08-31T02:11:32.552Z,10.90
2022-08-31T02:14:03.281Z,11.00
2022-08-31T02:16:31.665Z,10.90
2022-08-31T02:19:05.162Z,11.70
2022-08-31T02:21:36.757Z,11.00
2022-08-31T02:24:08.443Z,11.00
2022-08-31T02:26:38.071Z,11.00
2022-08-31T02:29:09.116Z,11.00
2022-08-31T02:31:37.278Z,11.00
2022-08-31T02:34:04.895Z,11.00
2022-08-31T02:36:36.115Z,11.00
2022-08-31T02:39:04.211Z,11.00
2022-08-31T02:41:37.465Z,11.00
2022-08-31T02:44:04.777Z,10.90
2022-08-31T02:46:32.570Z,10.90
2022-08-31T02:49:02.894Z,10.90
2022-08-31T02:51:33.098Z,10.90
2022-08-31T02:54:03.965Z,10.90
2022-08-31T02:56:36.508Z,10.90
2022-08-31T02:59:08.617Z,10.80
2022-08-31T03:01:37.467Z,10.80
2022-08-31T03:04:06.032Z,10.80
2022-08-31T03:06:34.626Z,10.80
2022-08-31T03:09:02.790Z,10.80
2022-08-31T03:11:35.284Z,10.80
2022-08-31T03:14:06.618Z,10.80
2022-08-31T03:16:37.350Z,10.80
2022-08-31T03:19:04.810Z,10.80
2022-08-31T03:21:37.738Z,10.80
2022-08-31T03:24:05.271Z,10.80
2022-08-31T03:26:32.612Z,10.80
2022-08-31T03:29:02.654Z,10.80
2022-08-31T03:31:34.797Z,10.80
2022-08-31T03:34:03.076Z,10.80
2022-08-31T03:36:30.403Z,10.90
2022-08-31T03:38:58.076Z,10.80
2022-08-31T03:41:26.596Z,10.80
2022-08-31T03:43:59.698Z,10.80
2022-08-31T03:46:27.128Z,10.80
2022-08-31T03:48:54.920Z,10.80
2022-08-31T03:51:25.603Z,10.80
2022-08-31T03:53:52.917Z,10.70
2022-08-31T03:56:21.527Z,10.70
2022-08-31T03:58:52.072Z,10.70
2022-08-31T04:01:26.862Z,10.70
2022-08-31T04:03:58.094Z,10.60
2022-08-31T04:06:29.935Z,10.60
2022-08-31T04:08:58.233Z,10.60
2022-08-31T04:11:44.966Z,10.60
2022-08-31T04:14:15.434Z,10.60
2022-08-31T04:16:50.869Z,10.60
2022-08-31T04:19:21.659Z,10.60
2022-08-31T04:22:00.950Z,10.60
2022-08-31T04:24:31.539Z,10.50
2022-08-31T04:27:02.963Z,10.50
2022-08-31T04:29:33.703Z,10.50
2022-08-31T04:32:01.960Z,10.50
2022-08-31T04:34:32.866Z,10.50
2022-08-31T04:37:09.071Z,10.40
2022-08-31T04:39:50.721Z,10.40
2022-08-31T04:42:19.762Z,10.40
2022-08-31T04:44:54.136Z,10.40
2022-08-31T04:47:24.930Z,10.40
2022-08-31T04:49:55.643Z,10.40
2022-08-31T04:52:28.284Z,10.40
2022-08-31T04:54:58.719Z,10.40
2022-08-31T04:57:26.001Z,10.50
2022-08-31T04:59:53.328Z,10.50
2022-08-31T05:02:23.875Z,10.60
2022-08-31T05:04:52.078Z,10.60
2022-08-31T05:07:20.470Z,10.70
2022-08-31T05:09:56.592Z,10.80
2022-08-31T05:12:29.461Z,10.90
2022-08-31T05:15:09.655Z,11.00
2022-08-31T05:17:37.152Z,11.10
2022-08-31T05:20:08.977Z,11.10
2022-08-31T05:22:36.114Z,11.20
2022-08-31T05:25:08.019Z,11.30
2022-08-31T05:27:39.878Z,11.40
2022-08-31T05:30:16.901Z,11.50
2022-08-31T05:32:45.775Z,11.60
2022-08-31T05:35:13.247Z,11.70
2022-08-31T05:37:41.515Z,11.80
2022-08-31T05:40:13.321Z,11.90
2022-08-31T05:42:45.435Z,11.90
2022-08-31T05:45:13.228Z,12.00
2022-08-31T05:47:41.930Z,12.10
2022-08-31T05:50:12.887Z,12.20
2022-08-31T05:52:43.707Z,12.20
2022-08-31T05:55:17.476Z,12.30
2022-08-31T05:57:48.260Z,12.40
2022-08-31T06:00:19.238Z,12.50
2022-08-31T06:02:53.722Z,12.50
2022-08-31T06:05:21.342Z,12.60
2022-08-31T06:07:49.866Z,12.70
2022-08-31T06:10:21.144Z,12.80
2022-08-31T06:12:53.224Z,13.00
2022-08-31T06:15:23.715Z,13.00
2022-08-31T06:17:50.920Z,13.10
2022-08-31T06:20:19.169Z,13.10
2022-08-31T06:22:49.691Z,13.00
2022-08-31T06:25:23.700Z,13.00
2022-08-31T06:27:55.418Z,13.00
2022-08-31T06:30:27.511Z,13.00
2022-08-31T06:32:58.641Z,13.00
2022-08-31T06:35:33.305Z,13.10
2022-08-31T06:38:04.715Z,13.00
2022-08-31T06:40:38.464Z,13.10
2022-08-31T06:43:09.048Z,13.20
2022-08-31T06:45:37.266Z,13.30
2022-08-31T06:48:07.782Z,13.20
2022-08-31T06:50:42.762Z,13.30
2022-08-31T06:53:14.675Z,13.20
2022-08-31T06:55:50.673Z,13.10
2022-08-31T06:58:18.899Z,13.20
2022-08-31T07:00:49.651Z,13.20
2022-08-31T07:03:24.041Z,13.20
2022-08-31T07:05:53.449Z,13.20
2022-08-31T07:08:21.464Z,13.30
2022-08-31T07:10:48.881Z,13.30
2022-08-31T07:13:25.959Z,13.30
2022-08-31T07:16:13.668Z,13.30
2022-08-31T07:18:45.553Z,13.40
2022-08-31T07:21:27.901Z,13.50
2022-08-31T07:23:57.312Z,13.60
2022-08-31T07:26:32.425Z,13.60
2022-08-31T07:29:11.393Z,13.70
2022-08-31T07:31:46.709Z,13.60
2022-08-31T07:34:28.241Z,13.60
2022-08-31T07:37:19.538Z,13.60
2022-08-31T07:40:11.543Z,13.70
2022-08-31T07:42:47.147Z,13.70
2022-08-31T07:45:25.810Z,13.80
2022-08-31T07:48:04.242Z,13.80
2022-08-31T07:50:37.628Z,13.80
2022-08-31T07:53:08.910Z,13.90
2022-08-31T07:55:38.034Z,14.10
2022-08-31T07:58:06.346Z,14.20
2022-08-31T08:00:41.073Z,14.30
2022-08-31T08:03:13.600Z,14.40
2022-08-31T08:05:42.039Z,14.50
2022-08-31T08:08:13.985Z,14.70
2022-08-31T08:10:46.651Z,15.00
2022-08-31T08:13:25.984Z,15.20
2022-08-31T08:15:56.925Z,15.40
2022-08-31T08:18:24.611Z,15.60
2022-08-31T08:20:53.050Z,15.80
2022-08-31T08:23:26.871Z,16.00
2022-08-31T08:25:56.782Z,16.20
2022-08-31T08:28:45.435Z,16.30
2022-08-31T08:31:19.377Z,16.40
2022-08-31T08:33:54.935Z,16.50
2022-08-31T08:36:25.691Z,16.70
2022-08-31T08:38:55.041Z,16.90
2022-08-31T08:41:25.468Z,17.00
2022-08-31T08:43:58.941Z,17.20
2022-08-31T08:46:51.927Z,17.30
2022-08-31T08:49:29.263Z,17.50
2022-08-31T08:52:04.438Z,17.60
2022-08-31T08:54:42.709Z,17.70
2022-08-31T08:57:20.908Z,17.90
2022-08-31T08:59:51.395Z,18.00
2022-08-31T09:02:26.725Z,18.20
2022-08-31T09:05:19.460Z,18.40
2022-08-31T09:07:56.498Z,18.60
2022-08-31T09:10:29.160Z,18.80
2022-08-31T09:13:14.172Z,19.10
2022-08-31T09:15:44.470Z,19.30
2022-08-31T09:18:42.273Z,19.50
2022-08-31T09:21:24.958Z,19.80
2022-08-31T09:24:07.519Z,20.00
2022-08-31T09:27:20.498Z,20.20
2022-08-31T09:29:58.618Z,20.60
2022-08-31T09:32:38.887Z,20.80
2022-08-31T09:35:30.327Z,21.00
2022-08-31T09:38:11.405Z,21.20
2022-08-31T09:40:44.645Z,21.30
2022-08-31T09:43:31.984Z,21.50
2022-08-31T09:46:11.920Z,21.60
2022-08-31T09:48:56.519Z,21.70
2022-08-31T09:51:33.964Z,21.80
2022-08-31T09:54:36.463Z,21.60
2022-08-31T09:57:08.054Z,21.50
2022-08-31T09:59:44.291Z,21.50
2022-08-31T10:02:22.380Z,21.50
2022-08-31T10:05:01.318Z,21.70
2022-08-31T10:07:49.136Z,22.00
2022-08-31T10:10:53.280Z,22.30
2022-08-31T10:13:41.149Z,22.40
2022-08-31T10:16:34.665Z,22.30
2022-08-31T10:19:16.295Z,22.40
2022-08-31T10:22:26.025Z,22.40
2022-08-31T10:25:21.691Z,22.40
2022-08-31T10:27:56.198Z,22.40
2022-08-31T10:30:27.665Z,22.60
2022-08-31T10:33:13.622Z,22.50
2022-08-31T10:35:51.290Z,22.30
2022-08-31T10:38:47.768Z,22.20
2022-08-31T10:41:23.898Z,22.10
2022-08-31T10:44:04.205Z,22.10
2022-08-31T10:46:35.337Z,21.90
2022-08-31T10:49:07.636Z,21.80
2022-08-31T10:51:41.895Z,21.60
2022-08-31T10:54:46.344Z,21.50
2022-08-31T10:57:31.479Z,21.50
2022-08-31T11:00:34.304Z,21.40
2022-08-31T11:03:13.276Z,21.40
2022-08-31T11:05:51.182Z,21.50
2022-08-31T11:08:33.806Z,21.60
2022-08-31T11:11:09.308Z,21.70
2022-08-31T11:14:00.599Z,21.80
2022-08-31T11:16:57.777Z,22.10
2022-08-31T11:19:51.027Z,22.00
2022-08-31T11:22:46.564Z,21.80
2022-08-31T11:25:48.238Z,21.70
2022-08-31T11:28:23.904Z,21.70
2022-08-31T11:31:01.766Z,21.60
2022-08-31T11:33:31.541Z,21.60
2022-08-31T11:36:10.428Z,21.60
2022-08-31T11:39:16.864Z,21.70
2022-08-31T11:41:51.257Z,21.90
2022-08-31T11:45:06.236Z,22.10
2022-08-31T11:47:39.081Z,22.40
2022-08-31T11:50:51.352Z,22.70
2022-08-31T11:53:36.367Z,22.70
2022-08-31T11:56:14.774Z,22.40
2022-08-31T11:58:46.375Z,22.10
2022-08-31T12:01:13.651Z,21.80
2022-08-31T12:03:56.720Z,21.70
2022-08-31T12:06:32.443Z,21.60
2022-08-31T12:09:22.170Z,21.70
2022-08-31T12:12:27.988Z,21.50
2022-08-31T12:15:20.801Z,21.50
2022-08-31T12:18:08.355Z,21.50
2022-08-31T12:20:59.893Z,21.40
2022-08-31T12:23:38.561Z,21.40
2022-08-31T12:26:24.236Z,21.30
2022-08-31T12:28:55.670Z,21.20
2022-08-31T12:31:28.242Z,21.20
2022-08-31T12:34:16.899Z,21.20
2022-08-31T12:36:45.481Z,21.50
2022-08-31T12:39:30.578Z,21.80
2022-08-31T12:42:07.271Z,22.20
2022-08-31T12:44:40.014Z,22.30
2022-08-31T12:47:27.593Z,22.70
2022-08-31T12:50:01.182Z,23.00
2022-08-31T12:52:55.555Z,23.00
2022-08-31T12:56:12.504Z,22.90
2022-08-31T12:59:19.824Z,22.80
2022-08-31T13:01:50.747Z,22.60
2022-08-31T13:04:20.088Z,22.40
2022-08-31T13:06:51.650Z,22.40
2022-08-31T13:09:31.893Z,22.30
2022-08-31T13:12:06.637Z,22.30
2022-08-31T13:14:48.042Z,22.20
2022-08-31T13:17:22.177Z,22.20
2022-08-31T13:19:59.732Z,22.20
2022-08-31T13:22:31.506Z,22.20
2022-08-31T13:25:37.858Z,22.20
2022-08-31T13:28:18.078Z,22.20
2022-08-31T13:30:57.952Z,22.20
2022-08-31T13:33:31.777Z,22.20
2022-08-31T13:36:09.965Z,22.30
2022-08-31T13:38:58.189Z,22.20
2022-08-31T13:41:37.789Z,22.20
2022-08-31T13:44:13.802Z,22.30
2022-08-31T13:47:03.516Z,22.50
2022-08-31T13:49:41.541Z,22.50
2022-08-31T13:52:26.903Z,22.70
2022-08-31T13:55:08.841Z,22.80
2022-08-31T13:57:55.517Z,22.70
2022-08-31T14:00:38.303Z,22.60
2022-08-31T14:03:49.420Z,22.50
2022-08-31T14:06:39.513Z,22.30
2022-08-31T14:09:18.207Z,22.10
2022-08-31T14:11:53.552Z,21.90
2022-08-31T14:14:26.992Z,21.60
2022-08-31T14:16:58.479Z,21.60
2022-08-31T14:19:34.226Z,21.70
2022-08-31T14:22:26.625Z,21.80
2022-08-31T14:25:00.957Z,22.00
2022-08-31T14:27:33.048Z,22.10
2022-08-31T14:30:00.558Z,22.30
2022-08-31T14:32:36.777Z,22.40
2022-08-31T14:35:11.646Z,22.40
2022-08-31T14:37:44.440Z,22.50
2022-08-31T14:40:15.486Z,22.60
2022-08-31T14:42:50.298Z,22.80
2022-08-31T14:45:21.464Z,22.90
2022-08-31T14:47:56.354Z,22.90
2022-08-31T14:50:27.676Z,22.90
2022-08-31T14:52:57.814Z,22.80
2022-08-31T14:55:28.340Z,22.60
2022-08-31T14:58:09.435Z,22.30
2022-08-31T15:00:51.067Z,22.10
2022-08-31T15:03:24.675Z,22.00
2022-08-31T15:05:51.939Z,22.00
2022-08-31T15:08:37.687Z,22.00
2022-08-31T15:11:07.031Z,21.90
2022-08-31T15:13:39.647Z,21.90
2022-08-31T15:16:14.828Z,21.90
2022-08-31T15:18:45.642Z,21.90
2022-08-31T15:21:16.303Z,22.00
2022-08-31T15:23:51.089Z,22.20
2022-08-31T15:26:25.779Z,22.30
2022-08-31T15:28:57.293Z,22.30
2022-08-31T15:31:34.684Z,22.30
2022-08-31T15:34:02.045Z,22.40
2022-08-31T15:36:29.571Z,22.50
2022-08-31T15:38:59.396Z,22.30
2022-08-31T15:41:29.392Z,22.20
2022-08-31T15:43:56.793Z,22.10
2022-08-31T15:46:44.449Z,22.00
2022-08-31T15:49:15.389Z,21.90
2022-08-31T15:51:49.272Z,21.80
2022-08-31T15:54:24.193Z,21.70
2022-08-31T15:56:57.822Z,21.70
2022-08-31T15:59:25.118Z,21.70
2022-08-31T16:01:53.136Z,21.70
2022-08-31T16:04:24.055Z,21.90
2022-08-31T16:06:53.581Z,22.20
2022-08-31T16:09:24.371Z,22.30
2022-08-31T16:11:51.925Z,22.40
2022-08-31T16:14:23.452Z,22.50
2022-08-31T16:16:54.438Z,22.70
2022-08-31T16:19:34.968Z,22.80
2022-08-31T16:22:06.351Z,22.80
2022-08-31T16:24:38.488Z,22.70
2022-08-31T16:27:12.205Z,22.70
2022-08-31T16:29:51.013Z,22.60
2022-08-31T16:32:18.746Z,22.60
2022-08-31T16:34:46.052Z,22.40
2022-08-31T16:37:17.177Z,22.30
2022-08-31T16:39:47.340Z,22.30
2022-08-31T16:42:15.778Z,22.20
2022-08-31T16:44:46.127Z,22.00
2022-08-31T16:47:16.214Z,21.90
2022-08-31T16:49:45.767Z,21.80
2022-08-31T16:52:26.855Z,21.70
2022-08-31T16:54:56.094Z,21.60
2022-08-31T16:57:29.761Z,21.50
2022-08-31T16:59:58.117Z,21.30
2022-08-31T17:02:26.406Z,21.10
2022-08-31T17:04:54.608Z,20.90
2022-08-31T17:07:24.432Z,20.80
2022-08-31T17:09:57.815Z,20.60
2022-08-31T17:12:27.566Z,20.50
2022-08-31T17:14:56.443Z,20.40
2022-08-31T17:17:26.499Z,21.30
2022-08-31T17:19:58.599Z,20.30
2022-08-31T17:22:33.029Z,20.40
2022-08-31T17:25:04.848Z,20.50
2022-08-31T17:27:34.245Z,20.40
2022-08-31T17:30:07.468Z,20.20
2022-08-31T17:32:44.515Z,20.10
2022-08-31T17:35:18.819Z,19.90
2022-08-31T17:37:48.334Z,19.80
2022-08-31T17:40:19.692Z,19.60
2022-08-31T17:42:46.808Z,19.40
2022-08-31T17:45:15.879Z,19.20
2022-08-31T17:47:46.082Z,19.00
2022-08-31T17:50:17.449Z,18.80
2022-08-31T17:52:44.775Z,18.60
2022-08-31T17:55:13.183Z,18.50
2022-08-31T17:57:42.475Z,18.40
2022-08-31T18:00:13.337Z,18.30
2022-08-31T18:02:41.167Z,18.30
2022-08-31T18:05:12.009Z,18.30
2022-08-31T18:07:43.954Z,18.00
2022-08-31T18:10:16.276Z,17.80
2022-08-31T18:12:47.735Z,17.60
2022-08-31T18:15:17.550Z,17.40
2022-08-31T18:17:46.340Z,17.30
2022-08-31T18:20:17.433Z,17.10
2022-08-31T18:22:52.208Z,16.90
2022-08-31T18:25:24.498Z,16.80
2022-08-31T18:28:03.670Z,16.60
2022-08-31T18:30:37.131Z,16.50
2022-08-31T18:33:05.727Z,16.40
2022-08-31T18:35:34.182Z,16.30
2022-08-31T18:38:03.682Z,16.20
2022-08-31T18:40:55.531Z,16.00
2022-08-31T18:43:42.322Z,15.90
2022-08-31T18:46:09.601Z,15.80
2022-08-31T18:48:49.057Z,15.70
2022-08-31T18:51:19.735Z,15.50
2022-08-31T18:53:52.240Z,15.40
2022-08-31T18:56:19.707Z,15.30
2022-08-31T18:58:51.780Z,15.20
2022-08-31T19:01:19.649Z,15.10
2022-08-31T19:03:52.708Z,15.00
2022-08-31T19:06:23.760Z,14.90
2022-08-31T19:08:51.468Z,14.80
2022-08-31T19:11:19.501Z,14.70
2022-08-31T19:13:50.736Z,14.70
2022-08-31T19:16:19.988Z,14.60
2022-08-31T19:18:48.583Z,14.50
2022-08-31T19:21:34.163Z,14.40
2022-08-31T19:24:05.011Z,14.30
2022-08-31T19:26:39.039Z,14.20
2022-08-31T19:29:13.044Z,14.10
2022-08-31T19:31:44.403Z,14.00
2022-08-31T19:34:16.014Z,13.90
2022-08-31T19:36:45.024Z,13.90
2022-08-31T19:39:16.351Z,13.80
2022-08-31T19:41:51.706Z,13.70
2022-08-31T19:44:20.509Z,13.60
2022-08-31T19:46:52.935Z,13.60
2022-08-31T19:49:20.949Z,13.50
2022-08-31T19:52:00.516Z,13.40
2022-08-31T19:54:37.492Z,13.40
2022-08-31T19:57:09.066Z,13.30
2022-08-31T19:59:37.325Z,13.30
2022-08-31T20:02:07.375Z,13.20
2022-08-31T20:04:36.727Z,13.20
2022-08-31T20:07:06.549Z,13.10
2022-08-31T20:09:35.359Z,13.10
2022-08-31T20:12:03.594Z,13.00
2022-08-31T20:14:32.199Z,12.90
2022-08-31T20:17:01.951Z,12.80
2022-08-31T20:19:36.142Z,12.80
2022-08-31T20:22:06.982Z,12.80
2022-08-31T20:24:43.813Z,12.70
2022-08-31T20:27:16.606Z,12.60
2022-08-31T20:29:49.186Z,12.60
2022-08-31T20:32:16.598Z,12.50
2022-08-31T20:34:44.869Z,12.50
2022-08-31T20:37:16.133Z,12.40
2022-08-31T20:39:43.419Z,12.30
2022-08-31T20:42:10.701Z,12.30
2022-08-31T20:44:39.058Z,12.20
2022-08-31T20:47:27.386Z,12.10
2022-08-31T20:50:00.593Z,12.10
2022-08-31T20:52:35.159Z,12.00
2022-08-31T20:55:07.900Z,11.90
2022-08-31T20:57:46.532Z,11.90
2022-08-31T21:00:15.093Z,11.80
2022-08-31T21:02:42.441Z,11.70
2022-08-31T21:08:02.731Z,11.10
2022-08-31T21:10:36.537Z,11.60
2022-08-31T21:13:12.937Z,11.60
2022-08-31T21:15:42.832Z,11.60
2022-08-31T21:18:10.715Z,11.60
2022-08-31T21:20:43.688Z,11.50
2022-08-31T21:23:14.542Z,11.50
2022-08-31T21:25:47.348Z,11.50
2022-08-31T21:28:17.696Z,11.50
2022-08-31T21:30:50.164Z,11.50
2022-08-31T21:33:18.110Z,11.40
2022-08-31T21:35:48.738Z,11.40
2022-08-31T21:38:16.122Z,11.30
2022-08-31T21:40:50.584Z,11.30
2022-08-31T21:43:21.892Z,11.20
2022-08-31T21:45:59.453Z,11.30
2022-08-31T21:48:30.534Z,11.20
2022-08-31T21:50:58.505Z,11.20
2022-08-31T21:53:27.480Z,11.20
2022-08-31T21:55:54.908Z,11.20
2022-08-31T21:58:22.128Z,11.10
2022-08-31T22:00:50.269Z,11.10
2022-08-31T22:03:19.887Z,11.10
2022-08-31T22:05:50.761Z,11.10
2022-08-31T22:08:20.189Z,11.10
2022-08-31T22:10:53.030Z,11.10
2022-08-31T22:13:27.453Z,11.00
2022-08-31T22:15:56.858Z,10.90
2022-08-31T22:21:23.157Z,10.80
2022-08-31T22:23:56.044Z,10.80
2022-08-31T22:26:26.776Z,10.70
2022-08-31T22:28:54.270Z,10.70
2022-08-31T22:31:25.561Z,10.70
2022-08-31T22:33:54.750Z,10.70
2022-08-31T22:36:42.810Z,10.70
2022-08-31T22:39:15.223Z,10.60
2022-08-31T22:41:43.890Z,10.60
2022-08-31T22:44:20.968Z,10.60
2022-08-31T22:46:49.049Z,10.50
2022-08-31T22:49:17.216Z,10.60
2022-08-31T22:51:48.546Z,10.50
2022-08-31T22:54:19.754Z,10.50
2022-08-31T22:56:47.636Z,10.60
2022-08-31T22:59:27.622Z,10.60
2022-08-31T23:02:05.019Z,10.60
2022-08-31T23:04:34.749Z,10.60
2022-08-31T23:07:08.380Z,10.50
2022-08-31T23:09:35.899Z,10.50
2022-08-31T23:12:07.089Z,10.50
2022-08-31T23:14:37.977Z,10.40
2022-08-31T23:17:11.202Z,10.40
2022-08-31T23:19:41.660Z,10.30
2022-08-31T23:22:11.961Z,10.30
2022-08-31T23:24:46.472Z,10.30
2022-08-31T23:27:20.105Z,10.20
2022-08-31T23:29:52.981Z,10.30
2022-08-31T23:32:27.962Z,10.20
2022-08-31T23:34:59.485Z,10.20
2022-08-31T23:37:31.065Z,10.20
2022-08-31T23:40:00.753Z,10.20
2022-08-31T23:42:29.719Z,10.20
2022-08-31T23:44:57.762Z,10.20
2022-08-31T23:47:30.285Z,10.20
2022-08-31T23:49:59.565Z,10.20
2022-08-31T23:52:31.074Z,10.10
2022-08-31T23:55:02.790Z,10.10
2022-08-31T23:57:35.662Z,10.10
